PVI397 BIRK-EIDL
Flight info
| Callsign | PVI397 |
|---|---|
| Flight time | 2h 9m |
| Altitude | 35000 |
| Route | M078F330 DCT NASBU DCT MIKLA DCT ING DCT ROSTI DCT MY/N0453F340 DCT DONIB DCT |
| Aircraft | A321/M-SDE3FGHIRWY/LB1 |
Departure
| Time | 2026-04-29 10:22 |
|---|---|
| Airport | Reykjavík Domestic Airport (BIRK) |
Arrival
| Time | 2026-04-29 12:31 |
|---|---|
| Airport | Donegal Airport (EIDL) |
| Time | Latitude | Longitude | Altitude | Speed | Heading |
|---|---|---|---|---|---|
| 2026-04-29 10:05 | 64.13177 | -21.94344 | 53 ft | 0 kts | 270° |
| 2026-04-29 10:13 | 64.13177 | -21.94349 | 53 ft | 1 kts | 270° |
| 2026-04-29 10:13 | 64.13162 | -21.94356 | 53 ft | 4 kts | 137° |
| 2026-04-29 10:14 | 64.13142 | -21.94282 | 53 ft | 7 kts | 111° |
| 2026-04-29 10:14 | 64.13140 | -21.94152 | 53 ft | 10 kts | 86° |
| 2026-04-29 10:14 | 64.13145 | -21.93981 | 52 ft | 12 kts | 85° |
| 2026-04-29 10:14 | 64.13141 | -21.93777 | 53 ft | 15 kts | 113° |
| 2026-04-29 10:15 | 64.13172 | -21.93554 | 49 ft | 16 kts | 40° |
| 2026-04-29 10:15 | 64.13258 | -21.93390 | 48 ft | 17 kts | 45° |
| 2026-04-29 10:15 | 64.13248 | -21.93307 | 47 ft | 8 kts | 185° |
| 2026-04-29 10:15 | 64.13231 | -21.93425 | 49 ft | 9 kts | 255° |
| 2026-04-29 10:16 | 64.13213 | -21.93558 | 50 ft | 11 kts | 339° |
| 2026-04-29 10:16 | 64.13291 | -21.93583 | 49 ft | 12 kts | 354° |
| 2026-04-29 10:16 | 64.13378 | -21.93600 | 48 ft | 13 kts | 356° |
| 2026-04-29 10:16 | 64.13473 | -21.93615 | 45 ft | 14 kts | 356° |
| 2026-04-29 10:17 | 64.13559 | -21.93651 | 44 ft | 0 kts | 325° |
| 2026-04-29 10:18 | 64.13559 | -21.93652 | 44 ft | 1 kts | 325° |
| 2026-04-29 10:18 | 64.13576 | -21.93684 | 45 ft | 0 kts | 315° |
| 2026-04-29 10:20 | 64.13577 | -21.93686 | 45 ft | 1 kts | 315° |
| 2026-04-29 10:20 | 64.13602 | -21.93744 | 45 ft | 8 kts | 314° |
| 2026-04-29 10:20 | 64.13607 | -21.93866 | 44 ft | 10 kts | 213° |
| 2026-04-29 10:21 | 64.13577 | -21.93878 | 44 ft | 0 kts | 177° |
| 2026-04-29 10:21 | 64.13510 | -21.93867 | 47 ft | 41 kts | 175° |
| 2026-04-29 10:21 | 64.12953 | -21.93766 | 55 ft | 117 kts | 176° |
| 2026-04-29 10:21 | 64.12052 | -21.93618 | 514 ft | 130 kts | 179° |
| 2026-04-29 10:22 | 64.11149 | -21.93397 | 1340 ft | 128 kts | 175° |
| 2026-04-29 10:22 | 64.10333 | -21.93066 | 1944 ft | 115 kts | 182° |
| 2026-04-29 10:22 | 64.09509 | -21.92977 | 2186 ft | 125 kts | 179° |
| 2026-04-29 10:22 | 64.08604 | -21.92648 | 2495 ft | 137 kts | 178° |
| 2026-04-29 10:23 | 64.07636 | -21.92274 | 2982 ft | 143 kts | 178° |
| 2026-04-29 10:23 | 64.06650 | -21.91880 | 3564 ft | 145 kts | 178° |
| 2026-04-29 10:23 | 64.05655 | -21.91473 | 4161 ft | 146 kts | 178° |
| 2026-04-29 10:23 | 64.04650 | -21.91069 | 4776 ft | 147 kts | 177° |
| 2026-04-29 10:24 | 64.03636 | -21.90672 | 5406 ft | 148 kts | 178° |
| 2026-04-29 10:24 | 64.02616 | -21.90253 | 6057 ft | 150 kts | 178° |
| 2026-04-29 10:24 | 64.01584 | -21.89808 | 6671 ft | 152 kts | 178° |
| 2026-04-29 10:24 | 64.00541 | -21.89341 | 7322 ft | 152 kts | 178° |
| 2026-04-29 10:25 | 63.99505 | -21.88845 | 7982 ft | 152 kts | 178° |
| 2026-04-29 10:25 | 63.98470 | -21.88309 | 8655 ft | 153 kts | 178° |
| 2026-04-29 10:25 | 63.97426 | -21.87739 | 9316 ft | 158 kts | 178° |
| 2026-04-29 10:25 | 63.96274 | -21.87127 | 9545 ft | 182 kts | 178° |
| 2026-04-29 10:26 | 63.94968 | -21.86471 | 9837 ft | 203 kts | 178° |
| 2026-04-29 10:26 | 63.93501 | -21.85790 | 10023 ft | 227 kts | 178° |
| 2026-04-29 10:26 | 63.91870 | -21.85086 | 10228 ft | 249 kts | 178° |
| 2026-04-29 10:26 | 63.90085 | -21.84363 | 10446 ft | 271 kts | 178° |
| 2026-04-29 10:27 | 63.86403 | -21.81124 | 11564 ft | 315 kts | 144° |
| 2026-04-29 10:27 | 63.85164 | -21.76913 | 12272 ft | 334 kts | 128° |
| 2026-04-29 10:27 | 63.84001 | -21.72394 | 13001 ft | 332 kts | 133° |
| 2026-04-29 10:28 | 63.82772 | -21.67935 | 13703 ft | 335 kts | 133° |
| 2026-04-29 10:28 | 63.81547 | -21.63394 | 14325 ft | 344 kts | 127° |
| 2026-04-29 10:28 | 63.80850 | -21.58014 | 14924 ft | 371 kts | 105° |
| 2026-04-29 10:28 | 63.80980 | -21.52029 | 15508 ft | 393 kts | 85° |
| 2026-04-29 10:29 | 63.81957 | -21.46134 | 16059 ft | 409 kts | 66° |
| 2026-04-29 10:29 | 63.83534 | -21.40688 | 16603 ft | 417 kts | 59° |
| 2026-04-29 10:29 | 63.84996 | -21.35011 | 17125 ft | 415 kts | 72° |
| 2026-04-29 10:29 | 63.85911 | -21.28850 | 17662 ft | 412 kts | 83° |
| 2026-04-29 10:30 | 63.86553 | -21.22514 | 18217 ft | 413 kts | 86° |
| 2026-04-29 10:30 | 63.87140 | -21.16099 | 18677 ft | 417 kts | 86° |
| 2026-04-29 10:30 | 63.87731 | -21.09622 | 19153 ft | 421 kts | 86° |
| 2026-04-29 10:30 | 63.88335 | -21.03097 | 19626 ft | 425 kts | 86° |
| 2026-04-29 10:31 | 63.88955 | -20.96503 | 20083 ft | 429 kts | 86° |
| 2026-04-29 10:31 | 63.89581 | -20.89870 | 20521 ft | 432 kts | 86° |
| 2026-04-29 10:31 | 63.90212 | -20.83164 | 20974 ft | 436 kts | 87° |
| 2026-04-29 10:31 | 63.90843 | -20.76411 | 21412 ft | 439 kts | 87° |
| 2026-04-29 10:32 | 63.91476 | -20.69599 | 21788 ft | 444 kts | 88° |
| 2026-04-29 10:32 | 63.92111 | -20.62692 | 22149 ft | 449 kts | 88° |
| 2026-04-29 10:32 | 63.92747 | -20.55713 | 22547 ft | 453 kts | 88° |
| 2026-04-29 10:32 | 63.93388 | -20.48661 | 22955 ft | 457 kts | 88° |
| 2026-04-29 10:33 | 63.94030 | -20.41568 | 23372 ft | 460 kts | 88° |
| 2026-04-29 10:33 | 63.94676 | -20.34418 | 23732 ft | 464 kts | 88° |
| 2026-04-29 10:33 | 63.95035 | -20.27243 | 24047 ft | 447 kts | 104° |
| 2026-04-29 10:33 | 63.94722 | -20.20344 | 24395 ft | 436 kts | 112° |
| 2026-04-29 10:34 | 63.94286 | -20.13483 | 24731 ft | 441 kts | 111° |
| 2026-04-29 10:34 | 63.93939 | -20.06506 | 25078 ft | 447 kts | 109° |
| 2026-04-29 10:34 | 63.93679 | -19.99419 | 25414 ft | 452 kts | 108° |
| 2026-04-29 10:34 | 63.93467 | -19.92353 | 25737 ft | 456 kts | 107° |
| 2026-04-29 10:35 | 63.93263 | -19.85140 | 25927 ft | 459 kts | 107° |
| 2026-04-29 10:35 | 63.93057 | -19.77892 | 26258 ft | 461 kts | 107° |
| 2026-04-29 10:35 | 63.92839 | -19.70503 | 26601 ft | 463 kts | 107° |
| 2026-04-29 10:35 | 63.92619 | -19.63281 | 26902 ft | 466 kts | 107° |
| 2026-04-29 10:36 | 63.92386 | -19.55906 | 27210 ft | 469 kts | 107° |
| 2026-04-29 10:36 | 63.92150 | -19.48502 | 27530 ft | 471 kts | 107° |
| 2026-04-29 10:36 | 63.91912 | -19.41073 | 27823 ft | 473 kts | 108° |
| 2026-04-29 10:36 | 63.91666 | -19.33592 | 28118 ft | 475 kts | 108° |
| 2026-04-29 10:37 | 63.91420 | -19.26093 | 28387 ft | 477 kts | 108° |
| 2026-04-29 10:37 | 63.91165 | -19.18542 | 28670 ft | 480 kts | 108° |
| 2026-04-29 10:37 | 63.90907 | -19.10961 | 28942 ft | 483 kts | 108° |
| 2026-04-29 10:37 | 63.90648 | -19.03351 | 29155 ft | 484 kts | 108° |
| 2026-04-29 10:38 | 63.90379 | -18.95707 | 29431 ft | 486 kts | 108° |
| 2026-04-29 10:38 | 63.90105 | -18.88054 | 29705 ft | 487 kts | 108° |
| 2026-04-29 10:38 | 63.89825 | -18.80378 | 29965 ft | 489 kts | 108° |
| 2026-04-29 10:38 | 63.89537 | -18.72673 | 30193 ft | 491 kts | 108° |
| 2026-04-29 10:39 | 63.89246 | -18.64945 | 30424 ft | 491 kts | 108° |
| 2026-04-29 10:39 | 63.88958 | -18.57243 | 30765 ft | 489 kts | 108° |
| 2026-04-29 10:39 | 63.88665 | -18.49549 | 31044 ft | 488 kts | 108° |
| 2026-04-29 10:39 | 63.88365 | -18.41881 | 31310 ft | 488 kts | 108° |
| 2026-04-29 10:40 | 63.88063 | -18.34196 | 31578 ft | 488 kts | 108° |
| 2026-04-29 10:40 | 63.87760 | -18.26632 | 31823 ft | 488 kts | 108° |
| 2026-04-29 10:40 | 63.87449 | -18.18964 | 32047 ft | 488 kts | 108° |
| 2026-04-29 10:40 | 63.87130 | -18.11272 | 32235 ft | 490 kts | 108° |
| 2026-04-29 10:41 | 63.86808 | -18.03579 | 32451 ft | 491 kts | 108° |
| 2026-04-29 10:41 | 63.86482 | -17.95872 | 32677 ft | 491 kts | 108° |
| 2026-04-29 10:41 | 63.86153 | -17.88163 | 32885 ft | 490 kts | 107° |
| 2026-04-29 10:41 | 63.85823 | -17.80470 | 33153 ft | 489 kts | 107° |
| 2026-04-29 10:42 | 63.85489 | -17.72808 | 33361 ft | 489 kts | 107° |
| 2026-04-29 10:42 | 63.85149 | -17.65135 | 33574 ft | 489 kts | 107° |
| 2026-04-29 10:42 | 63.84806 | -17.57475 | 33773 ft | 488 kts | 107° |
| 2026-04-29 10:42 | 63.84458 | -17.49827 | 33970 ft | 488 kts | 107° |
| 2026-04-29 10:43 | 63.84106 | -17.42187 | 34139 ft | 487 kts | 107° |
| 2026-04-29 10:43 | 63.83752 | -17.34551 | 34270 ft | 487 kts | 107° |
| 2026-04-29 10:43 | 63.83398 | -17.26949 | 34528 ft | 483 kts | 107° |
| 2026-04-29 10:43 | 63.83039 | -17.19394 | 34699 ft | 483 kts | 107° |
| 2026-04-29 10:44 | 63.82673 | -17.11826 | 34778 ft | 484 kts | 107° |
| 2026-04-29 10:44 | 63.81923 | -16.96590 | 34875 ft | 490 kts | 107° |
| 2026-04-29 10:45 | 63.81286 | -16.83798 | 34946 ft | 494 kts | 107° |
| 2026-04-29 10:45 | 63.80494 | -16.68248 | 35022 ft | 499 kts | 107° |
| 2026-04-29 10:46 | 63.79164 | -16.53055 | 35039 ft | 480 kts | 122° |
| 2026-04-29 10:46 | 63.76727 | -16.39051 | 35043 ft | 482 kts | 122° |
| 2026-04-29 10:47 | 63.74481 | -16.24617 | 35037 ft | 491 kts | 120° |
| 2026-04-29 10:47 | 63.72290 | -16.09935 | 35037 ft | 495 kts | 120° |
| 2026-04-29 10:48 | 63.70060 | -15.95188 | 35047 ft | 497 kts | 120° |
| 2026-04-29 10:48 | 63.67812 | -15.80448 | 35044 ft | 497 kts | 120° |
| 2026-04-29 10:49 | 63.65545 | -15.65755 | 35044 ft | 496 kts | 120° |
| 2026-04-29 10:49 | 63.63280 | -15.51118 | 35038 ft | 494 kts | 121° |
| 2026-04-29 10:50 | 63.60998 | -15.36556 | 35052 ft | 493 kts | 121° |
| 2026-04-29 10:50 | 63.58707 | -15.22022 | 35050 ft | 494 kts | 121° |
| 2026-04-29 10:51 | 63.56398 | -15.07510 | 34989 ft | 493 kts | 121° |
| 2026-04-29 10:51 | 63.54084 | -14.93052 | 35035 ft | 492 kts | 121° |
| 2026-04-29 10:52 | 63.51753 | -14.78640 | 35050 ft | 492 kts | 121° |
| 2026-04-29 10:52 | 63.49410 | -14.64242 | 35028 ft | 492 kts | 121° |
| 2026-04-29 10:53 | 63.47051 | -14.49856 | 35054 ft | 493 kts | 121° |
| 2026-04-29 10:53 | 63.44672 | -14.35463 | 35053 ft | 493 kts | 121° |
| 2026-04-29 10:54 | 63.42297 | -14.21186 | 35060 ft | 494 kts | 121° |
| 2026-04-29 10:54 | 63.39882 | -14.06840 | 35087 ft | 494 kts | 122° |
| 2026-04-29 10:55 | 63.37454 | -13.92506 | 35084 ft | 495 kts | 122° |
| 2026-04-29 10:55 | 63.35013 | -13.78193 | 35024 ft | 493 kts | 121° |
| 2026-04-29 10:56 | 63.32562 | -13.63935 | 35088 ft | 493 kts | 121° |
| 2026-04-29 10:56 | 63.30095 | -13.49686 | 35093 ft | 494 kts | 121° |
| 2026-04-29 10:57 | 63.27611 | -13.35444 | 35102 ft | 494 kts | 121° |
| 2026-04-29 10:57 | 63.25115 | -13.21223 | 35111 ft | 494 kts | 121° |
| 2026-04-29 10:58 | 63.22599 | -13.07027 | 35120 ft | 494 kts | 121° |
| 2026-04-29 10:58 | 63.20072 | -12.92841 | 35095 ft | 495 kts | 121° |
| 2026-04-29 10:59 | 63.17539 | -12.78680 | 35123 ft | 495 kts | 121° |
| 2026-04-29 10:59 | 63.14977 | -12.64538 | 35115 ft | 495 kts | 121° |
| 2026-04-29 11:00 | 63.12423 | -12.50533 | 35134 ft | 494 kts | 121° |
| 2026-04-29 11:00 | 63.09845 | -12.36482 | 35149 ft | 493 kts | 121° |
| 2026-04-29 11:01 | 63.07259 | -12.22453 | 35163 ft | 493 kts | 121° |
| 2026-04-29 11:01 | 63.04656 | -12.08466 | 35128 ft | 493 kts | 121° |
| 2026-04-29 11:02 | 63.02034 | -11.94500 | 35161 ft | 493 kts | 121° |
| 2026-04-29 11:02 | 62.99402 | -11.80572 | 35176 ft | 493 kts | 121° |
| 2026-04-29 11:03 | 62.96754 | -11.66652 | 35185 ft | 493 kts | 121° |
| 2026-04-29 11:03 | 62.94096 | -11.52770 | 35163 ft | 492 kts | 121° |
| 2026-04-29 11:04 | 62.91432 | -11.38933 | 35204 ft | 492 kts | 121° |
| 2026-04-29 11:04 | 62.88773 | -11.25199 | 35163 ft | 492 kts | 121° |
| 2026-04-29 11:05 | 62.86080 | -11.11422 | 35194 ft | 492 kts | 121° |
| 2026-04-29 11:05 | 62.83370 | -10.97667 | 35212 ft | 492 kts | 121° |
| 2026-04-29 11:06 | 62.80650 | -10.83922 | 35223 ft | 493 kts | 121° |
| 2026-04-29 11:06 | 62.77913 | -10.70202 | 35228 ft | 493 kts | 121° |
| 2026-04-29 11:07 | 62.75158 | -10.56494 | 35227 ft | 493 kts | 121° |
| 2026-04-29 11:07 | 62.72394 | -10.42841 | 35197 ft | 492 kts | 121° |
| 2026-04-29 11:08 | 62.69623 | -10.29211 | 35235 ft | 491 kts | 120° |
| 2026-04-29 11:08 | 62.66847 | -10.15649 | 35241 ft | 491 kts | 120° |
| 2026-04-29 11:09 | 62.64054 | -10.02098 | 35263 ft | 491 kts | 121° |
| 2026-04-29 11:09 | 62.61245 | -9.88575 | 35266 ft | 491 kts | 121° |
| 2026-04-29 11:10 | 62.58423 | -9.75068 | 35271 ft | 491 kts | 121° |
| 2026-04-29 11:10 | 62.55591 | -9.61605 | 35285 ft | 491 kts | 121° |
| 2026-04-29 11:11 | 62.52748 | -9.48162 | 35270 ft | 490 kts | 121° |
| 2026-04-29 11:11 | 62.49891 | -9.34773 | 35270 ft | 489 kts | 120° |
| 2026-04-29 11:12 | 62.47028 | -9.21435 | 35289 ft | 488 kts | 120° |
| 2026-04-29 11:12 | 62.44186 | -9.08218 | 35306 ft | 488 kts | 121° |
| 2026-04-29 11:13 | 62.41306 | -8.94954 | 35303 ft | 488 kts | 121° |
| 2026-04-29 11:13 | 62.38403 | -8.81730 | 35305 ft | 488 kts | 121° |
| 2026-04-29 11:14 | 62.35502 | -8.68551 | 35311 ft | 487 kts | 120° |
| 2026-04-29 11:14 | 62.32598 | -8.55426 | 35318 ft | 483 kts | 120° |
| 2026-04-29 11:15 | 62.29691 | -8.42386 | 35337 ft | 484 kts | 121° |
| 2026-04-29 11:15 | 62.26770 | -8.29338 | 35322 ft | 484 kts | 120° |
| 2026-04-29 11:16 | 62.23844 | -8.16327 | 35336 ft | 484 kts | 120° |
| 2026-04-29 11:16 | 62.20902 | -8.03360 | 35349 ft | 484 kts | 121° |
| 2026-04-29 11:17 | 62.17949 | -7.90407 | 35360 ft | 484 kts | 121° |
| 2026-04-29 11:17 | 62.15006 | -7.77564 | 35369 ft | 481 kts | 121° |
| 2026-04-29 11:18 | 62.12040 | -7.64729 | 35369 ft | 482 kts | 121° |
| 2026-04-29 11:18 | 62.08812 | -7.52327 | 35359 ft | 470 kts | 135° |
| 2026-04-29 11:19 | 62.04167 | -7.42857 | 35383 ft | 466 kts | 141° |
| 2026-04-29 11:19 | 61.99488 | -7.33271 | 35365 ft | 467 kts | 141° |
| 2026-04-29 11:20 | 61.94789 | -7.23742 | 35377 ft | 467 kts | 141° |
| 2026-04-29 11:20 | 61.90069 | -7.14250 | 35373 ft | 467 kts | 141° |
| 2026-04-29 11:21 | 61.85315 | -7.04818 | 35389 ft | 468 kts | 141° |
| 2026-04-29 11:21 | 61.80551 | -6.95414 | 35395 ft | 468 kts | 141° |
| 2026-04-29 11:22 | 61.75808 | -6.86076 | 35393 ft | 466 kts | 141° |
| 2026-04-29 11:22 | 61.71046 | -6.76792 | 35403 ft | 466 kts | 141° |
| 2026-04-29 11:23 | 61.66066 | -6.68421 | 35384 ft | 454 kts | 158° |
| 2026-04-29 11:23 | 61.63112 | -6.66277 | 35405 ft | 448 kts | 169° |
| 2026-04-29 11:23 | 61.60071 | -6.64427 | 35412 ft | 450 kts | 167° |
| 2026-04-29 11:24 | 61.54115 | -6.60519 | 35395 ft | 452 kts | 166° |
| 2026-04-29 11:24 | 61.48105 | -6.56533 | 35413 ft | 453 kts | 166° |
| 2026-04-29 11:25 | 61.42111 | -6.52569 | 35414 ft | 450 kts | 166° |
| 2026-04-29 11:25 | 61.36125 | -6.48623 | 35423 ft | 452 kts | 166° |
| 2026-04-29 11:26 | 61.27116 | -6.42715 | 35415 ft | 451 kts | 166° |
| 2026-04-29 11:26 | 61.21138 | -6.38809 | 35428 ft | 451 kts | 166° |
| 2026-04-29 11:27 | 61.15139 | -6.34926 | 35422 ft | 452 kts | 166° |
| 2026-04-29 11:27 | 61.09117 | -6.31098 | 35429 ft | 453 kts | 166° |
| 2026-04-29 11:28 | 61.03085 | -6.27284 | 35437 ft | 451 kts | 166° |
| 2026-04-29 11:28 | 60.97094 | -6.23504 | 35437 ft | 451 kts | 166° |
| 2026-04-29 11:29 | 60.91118 | -6.19751 | 35443 ft | 453 kts | 166° |
| 2026-04-29 11:29 | 60.85081 | -6.16031 | 35435 ft | 453 kts | 166° |
| 2026-04-29 11:30 | 60.79018 | -6.12375 | 35451 ft | 454 kts | 166° |
| 2026-04-29 11:30 | 60.72955 | -6.08735 | 35456 ft | 453 kts | 166° |
| 2026-04-29 11:31 | 60.66912 | -6.05119 | 35455 ft | 453 kts | 166° |
| 2026-04-29 11:31 | 60.60846 | -6.01508 | 35445 ft | 454 kts | 166° |
| 2026-04-29 11:32 | 60.54773 | -5.97969 | 35453 ft | 455 kts | 167° |
| 2026-04-29 11:32 | 60.48676 | -5.94460 | 35469 ft | 456 kts | 167° |
| 2026-04-29 11:33 | 60.42580 | -5.90966 | 35468 ft | 453 kts | 167° |
| 2026-04-29 11:33 | 60.37524 | -5.88078 | 35475 ft | 455 kts | 167° |
| 2026-04-29 11:34 | 60.31419 | -5.84607 | 35463 ft | 456 kts | 167° |
| 2026-04-29 11:34 | 60.25288 | -5.81171 | 35476 ft | 458 kts | 167° |
| 2026-04-29 11:35 | 60.19162 | -5.77757 | 35474 ft | 455 kts | 167° |
| 2026-04-29 11:35 | 60.13046 | -5.74363 | 35481 ft | 457 kts | 167° |
| 2026-04-29 11:36 | 60.06907 | -5.70970 | 35481 ft | 458 kts | 167° |
| 2026-04-29 11:36 | 60.00777 | -5.67594 | 35480 ft | 458 kts | 167° |
| 2026-04-29 11:37 | 59.94622 | -5.64226 | 35483 ft | 459 kts | 167° |
| 2026-04-29 11:37 | 59.88452 | -5.60867 | 35486 ft | 458 kts | 167° |
| 2026-04-29 11:38 | 59.82308 | -5.57530 | 35490 ft | 459 kts | 167° |
| 2026-04-29 11:38 | 59.76177 | -5.54211 | 35481 ft | 459 kts | 167° |
| 2026-04-29 11:39 | 59.70018 | -5.50864 | 35495 ft | 460 kts | 167° |
| 2026-04-29 11:39 | 59.63833 | -5.47512 | 35499 ft | 461 kts | 167° |
| 2026-04-29 11:40 | 59.57675 | -5.44183 | 35500 ft | 459 kts | 167° |
| 2026-04-29 11:40 | 59.51496 | -5.40854 | 35496 ft | 461 kts | 167° |
| 2026-04-29 11:41 | 59.45323 | -5.37537 | 35496 ft | 460 kts | 167° |
| 2026-04-29 11:41 | 59.39137 | -5.34221 | 35499 ft | 462 kts | 167° |
| 2026-04-29 11:42 | 59.32882 | -5.32720 | 35488 ft | 451 kts | 191° |
| 2026-04-29 11:42 | 59.29900 | -5.34442 | 35496 ft | 446 kts | 207° |
| 2026-04-29 11:42 | 59.27307 | -5.37704 | 35501 ft | 443 kts | 221° |
| 2026-04-29 11:43 | 59.22611 | -5.45459 | 35501 ft | 446 kts | 211° |
| 2026-04-29 11:43 | 59.16826 | -5.50011 | 35500 ft | 451 kts | 200° |
| 2026-04-29 11:44 | 59.10885 | -5.53996 | 35503 ft | 452 kts | 201° |
| 2026-04-29 11:44 | 59.04978 | -5.58088 | 35497 ft | 450 kts | 201° |
| 2026-04-29 11:45 | 58.99074 | -5.62209 | 35504 ft | 452 kts | 201° |
| 2026-04-29 11:45 | 58.93181 | -5.66314 | 35501 ft | 447 kts | 201° |
| 2026-04-29 11:46 | 58.87355 | -5.70349 | 35494 ft | 446 kts | 201° |
| 2026-04-29 11:46 | 58.81479 | -5.74405 | 35502 ft | 450 kts | 201° |
| 2026-04-29 11:47 | 58.75586 | -5.78467 | 35500 ft | 449 kts | 201° |
| 2026-04-29 11:47 | 58.69692 | -5.82500 | 35498 ft | 450 kts | 201° |
| 2026-04-29 11:48 | 58.63817 | -5.86634 | 35498 ft | 449 kts | 203° |
| 2026-04-29 11:48 | 58.58041 | -5.91112 | 35492 ft | 444 kts | 203° |
| 2026-04-29 11:49 | 58.52305 | -5.95498 | 35502 ft | 446 kts | 203° |
| 2026-04-29 11:49 | 58.46416 | -5.99413 | 35499 ft | 451 kts | 196° |
| 2026-04-29 11:50 | 58.40344 | -6.02102 | 35495 ft | 451 kts | 194° |
| 2026-04-29 11:50 | 58.34207 | -6.04653 | 35494 ft | 451 kts | 194° |
| 2026-04-29 11:51 | 58.28065 | -6.07236 | 35490 ft | 452 kts | 194° |
| 2026-04-29 11:51 | 58.21965 | -6.09837 | 35493 ft | 446 kts | 194° |
| 2026-04-29 11:52 | 58.15884 | -6.12427 | 35498 ft | 450 kts | 194° |
| 2026-04-29 11:52 | 58.09819 | -6.15002 | 35492 ft | 432 kts | 194° |
| 2026-04-29 11:53 | 58.06945 | -6.16218 | 35474 ft | 415 kts | 194° |
| 2026-04-29 11:53 | 58.04189 | -6.17382 | 35455 ft | 398 kts | 193° |
| 2026-04-29 11:53 | 57.98763 | -6.19730 | 35485 ft | 404 kts | 194° |
| 2026-04-29 11:54 | 57.93253 | -6.22129 | 35386 ft | 404 kts | 194° |
| 2026-04-29 11:54 | 57.90522 | -6.23318 | 34768 ft | 403 kts | 194° |
| 2026-04-29 11:54 | 57.87774 | -6.24517 | 33944 ft | 407 kts | 193° |
| 2026-04-29 11:55 | 57.85006 | -6.25736 | 33042 ft | 411 kts | 193° |
| 2026-04-29 11:55 | 57.82205 | -6.26986 | 32115 ft | 416 kts | 193° |
| 2026-04-29 11:55 | 57.79378 | -6.28269 | 31242 ft | 420 kts | 193° |
| 2026-04-29 11:55 | 57.76527 | -6.29586 | 30469 ft | 423 kts | 193° |
| 2026-04-29 11:56 | 57.73667 | -6.30948 | 29706 ft | 426 kts | 193° |
| 2026-04-29 11:56 | 57.70794 | -6.32341 | 28999 ft | 428 kts | 193° |
| 2026-04-29 11:56 | 57.67948 | -6.33729 | 28330 ft | 430 kts | 194° |
| 2026-04-29 11:56 | 57.65049 | -6.35148 | 27721 ft | 431 kts | 194° |
| 2026-04-29 11:57 | 57.62137 | -6.36577 | 27179 ft | 433 kts | 194° |
| 2026-04-29 11:57 | 57.59223 | -6.38008 | 26667 ft | 434 kts | 194° |
| 2026-04-29 11:57 | 57.56297 | -6.39447 | 26168 ft | 436 kts | 194° |
| 2026-04-29 11:57 | 57.53360 | -6.40894 | 25674 ft | 437 kts | 194° |
| 2026-04-29 11:58 | 57.50412 | -6.42347 | 25191 ft | 439 kts | 194° |
| 2026-04-29 11:58 | 57.47459 | -6.43810 | 24718 ft | 440 kts | 193° |
| 2026-04-29 11:58 | 57.44499 | -6.45293 | 24255 ft | 442 kts | 193° |
| 2026-04-29 11:58 | 57.41528 | -6.46790 | 23744 ft | 443 kts | 193° |
| 2026-04-29 11:59 | 57.38551 | -6.48296 | 23218 ft | 443 kts | 193° |
| 2026-04-29 11:59 | 57.35577 | -6.49809 | 22674 ft | 444 kts | 193° |
| 2026-04-29 11:59 | 57.32598 | -6.51333 | 22148 ft | 444 kts | 193° |
| 2026-04-29 11:59 | 57.29616 | -6.52868 | 21634 ft | 445 kts | 193° |
| 2026-04-29 12:00 | 57.26634 | -6.54412 | 21156 ft | 445 kts | 193° |
| 2026-04-29 12:00 | 57.23658 | -6.55964 | 20752 ft | 445 kts | 193° |
| 2026-04-29 12:00 | 57.20674 | -6.57528 | 20387 ft | 446 kts | 193° |
| 2026-04-29 12:00 | 57.17683 | -6.59120 | 20023 ft | 448 kts | 193° |
| 2026-04-29 12:01 | 57.14705 | -6.60726 | 19671 ft | 441 kts | 193° |
| 2026-04-29 12:01 | 57.11807 | -6.62306 | 19301 ft | 426 kts | 193° |
| 2026-04-29 12:01 | 57.09014 | -6.63845 | 18948 ft | 412 kts | 193° |
| 2026-04-29 12:01 | 57.06309 | -6.65351 | 18571 ft | 401 kts | 194° |
| 2026-04-29 12:02 | 57.03675 | -6.66828 | 18160 ft | 392 kts | 194° |
| 2026-04-29 12:02 | 57.01088 | -6.68283 | 17698 ft | 386 kts | 194° |
| 2026-04-29 12:02 | 56.98535 | -6.69720 | 17054 ft | 384 kts | 194° |
| 2026-04-29 12:02 | 56.95990 | -6.71150 | 16640 ft | 382 kts | 194° |
| 2026-04-29 12:03 | 56.93447 | -6.72577 | 16509 ft | 381 kts | 194° |
| 2026-04-29 12:03 | 56.90914 | -6.74007 | 16496 ft | 382 kts | 193° |
| 2026-04-29 12:03 | 56.88374 | -6.75454 | 16491 ft | 382 kts | 194° |
| 2026-04-29 12:03 | 56.85834 | -6.76902 | 16483 ft | 382 kts | 194° |
| 2026-04-29 12:04 | 56.83294 | -6.78351 | 16487 ft | 382 kts | 194° |
| 2026-04-29 12:04 | 56.80755 | -6.79798 | 16494 ft | 382 kts | 194° |
| 2026-04-29 12:04 | 56.78281 | -6.81635 | 16488 ft | 387 kts | 204° |
| 2026-04-29 12:04 | 56.75928 | -6.84045 | 16488 ft | 388 kts | 206° |
| 2026-04-29 12:05 | 56.73577 | -6.86467 | 16497 ft | 387 kts | 205° |
| 2026-04-29 12:05 | 56.71210 | -6.88800 | 16487 ft | 387 kts | 204° |
| 2026-04-29 12:05 | 56.68829 | -6.91085 | 16492 ft | 387 kts | 204° |
| 2026-04-29 12:05 | 56.66443 | -6.93334 | 16499 ft | 387 kts | 203° |
| 2026-04-29 12:06 | 56.64051 | -6.95566 | 16509 ft | 388 kts | 203° |
| 2026-04-29 12:06 | 56.61677 | -6.97778 | 16503 ft | 388 kts | 203° |
| 2026-04-29 12:06 | 56.59247 | -7.00043 | 16504 ft | 388 kts | 203° |
| 2026-04-29 12:06 | 56.56847 | -7.02276 | 16503 ft | 388 kts | 203° |
| 2026-04-29 12:07 | 56.54449 | -7.04504 | 16495 ft | 388 kts | 203° |
| 2026-04-29 12:07 | 56.52081 | -7.06703 | 16504 ft | 388 kts | 203° |
| 2026-04-29 12:07 | 56.49684 | -7.08927 | 16496 ft | 387 kts | 203° |
| 2026-04-29 12:07 | 56.47286 | -7.11151 | 16499 ft | 387 kts | 203° |
| 2026-04-29 12:08 | 56.44883 | -7.13366 | 16487 ft | 387 kts | 203° |
| 2026-04-29 12:08 | 56.42482 | -7.15581 | 16485 ft | 387 kts | 203° |
| 2026-04-29 12:08 | 56.40081 | -7.17789 | 16484 ft | 387 kts | 203° |
| 2026-04-29 12:08 | 56.38459 | -7.19278 | 16488 ft | 387 kts | 203° |
| 2026-04-29 12:09 | 56.35765 | -7.21751 | 16492 ft | 388 kts | 202° |
| 2026-04-29 12:09 | 56.33319 | -7.23992 | 16491 ft | 389 kts | 202° |
| 2026-04-29 12:09 | 56.30940 | -7.26174 | 16488 ft | 389 kts | 202° |
| 2026-04-29 12:09 | 56.28519 | -7.28381 | 16484 ft | 389 kts | 202° |
| 2026-04-29 12:10 | 56.26115 | -7.30584 | 16485 ft | 389 kts | 202° |
| 2026-04-29 12:10 | 56.23699 | -7.32789 | 16483 ft | 389 kts | 202° |
| 2026-04-29 12:10 | 56.21285 | -7.34992 | 16484 ft | 389 kts | 202° |
| 2026-04-29 12:10 | 56.18870 | -7.37191 | 16479 ft | 389 kts | 202° |
| 2026-04-29 12:11 | 56.16453 | -7.39389 | 16478 ft | 389 kts | 202° |
| 2026-04-29 12:11 | 56.14039 | -7.41576 | 16478 ft | 389 kts | 202° |
| 2026-04-29 12:11 | 56.11621 | -7.43764 | 16482 ft | 389 kts | 202° |
| 2026-04-29 12:11 | 56.09230 | -7.45930 | 16476 ft | 377 kts | 202° |
| 2026-04-29 12:12 | 56.06954 | -7.47995 | 16458 ft | 355 kts | 201° |
| 2026-04-29 12:12 | 56.04820 | -7.49927 | 16441 ft | 332 kts | 201° |
| 2026-04-29 12:12 | 56.02825 | -7.51729 | 16432 ft | 310 kts | 201° |
| 2026-04-29 12:12 | 56.00957 | -7.53415 | 16452 ft | 292 kts | 200° |
| 2026-04-29 12:13 | 55.99194 | -7.54998 | 16380 ft | 278 kts | 200° |
| 2026-04-29 12:13 | 55.97460 | -7.56543 | 15878 ft | 281 kts | 200° |
| 2026-04-29 12:13 | 55.95716 | -7.58096 | 15361 ft | 285 kts | 200° |
| 2026-04-29 12:13 | 55.93944 | -7.59680 | 14968 ft | 284 kts | 200° |
| 2026-04-29 12:14 | 55.92164 | -7.61276 | 14599 ft | 282 kts | 200° |
| 2026-04-29 12:14 | 55.90410 | -7.62840 | 14275 ft | 281 kts | 200° |
| 2026-04-29 12:14 | 55.88681 | -7.64381 | 13808 ft | 283 kts | 200° |
| 2026-04-29 12:14 | 55.86916 | -7.65957 | 13305 ft | 285 kts | 201° |
| 2026-04-29 12:15 | 55.85134 | -7.67545 | 12798 ft | 287 kts | 201° |
| 2026-04-29 12:15 | 55.83338 | -7.69140 | 12291 ft | 290 kts | 201° |
| 2026-04-29 12:15 | 55.81526 | -7.70750 | 11795 ft | 292 kts | 201° |
| 2026-04-29 12:15 | 55.79705 | -7.72370 | 11307 ft | 294 kts | 201° |
| 2026-04-29 12:16 | 55.77868 | -7.74004 | 10819 ft | 296 kts | 202° |
| 2026-04-29 12:16 | 55.76022 | -7.75646 | 10346 ft | 298 kts | 202° |
| 2026-04-29 12:16 | 55.74161 | -7.77299 | 9819 ft | 300 kts | 202° |
| 2026-04-29 12:16 | 55.72289 | -7.78953 | 9298 ft | 301 kts | 202° |
| 2026-04-29 12:17 | 55.70413 | -7.80612 | 8789 ft | 302 kts | 202° |
| 2026-04-29 12:17 | 55.68526 | -7.82277 | 8284 ft | 303 kts | 202° |
| 2026-04-29 12:17 | 55.66631 | -7.83947 | 7786 ft | 304 kts | 202° |
| 2026-04-29 12:17 | 55.64735 | -7.85620 | 7303 ft | 305 kts | 203° |
| 2026-04-29 12:18 | 55.62831 | -7.87293 | 6873 ft | 303 kts | 203° |
| 2026-04-29 12:18 | 55.60982 | -7.88923 | 6769 ft | 290 kts | 203° |
| 2026-04-29 12:18 | 55.59222 | -7.90475 | 6718 ft | 275 kts | 202° |
| 2026-04-29 12:18 | 55.57587 | -7.91913 | 6687 ft | 260 kts | 202° |
| 2026-04-29 12:19 | 55.56041 | -7.93272 | 6656 ft | 244 kts | 202° |
| 2026-04-29 12:19 | 55.54566 | -7.94565 | 6619 ft | 228 kts | 202° |
| 2026-04-29 12:19 | 55.53195 | -7.95766 | 6595 ft | 212 kts | 201° |
| 2026-04-29 12:19 | 55.51882 | -7.96911 | 6266 ft | 215 kts | 201° |
| 2026-04-29 12:20 | 55.50508 | -7.98084 | 5743 ft | 223 kts | 201° |
| 2026-04-29 12:20 | 55.49570 | -7.98869 | 5427 ft | 227 kts | 200° |
| 2026-04-29 12:20 | 55.48122 | -8.00062 | 4989 ft | 232 kts | 200° |
| 2026-04-29 12:20 | 55.46651 | -8.01252 | 4569 ft | 234 kts | 200° |
| 2026-04-29 12:21 | 55.45162 | -8.02438 | 4181 ft | 235 kts | 200° |
| 2026-04-29 12:21 | 55.43178 | -8.03993 | 3679 ft | 236 kts | 200° |
| 2026-04-29 12:21 | 55.42166 | -8.04776 | 3455 ft | 236 kts | 199° |
| 2026-04-29 12:21 | 55.40664 | -8.05924 | 3094 ft | 235 kts | 199° |
| 2026-04-29 12:22 | 55.39166 | -8.07055 | 2754 ft | 235 kts | 199° |
| 2026-04-29 12:22 | 55.37491 | -8.08276 | 2532 ft | 284 kts | 199° |
| 2026-04-29 12:22 | 55.35556 | -8.09638 | 2469 ft | 304 kts | 199° |
| 2026-04-29 12:22 | 55.33530 | -8.11033 | 2459 ft | 317 kts | 198° |
| 2026-04-29 12:23 | 55.31534 | -8.12382 | 2429 ft | 298 kts | 198° |
| 2026-04-29 12:23 | 55.29671 | -8.13627 | 2359 ft | 283 kts | 198° |
| 2026-04-29 12:23 | 55.27868 | -8.14815 | 2231 ft | 271 kts | 197° |
| 2026-04-29 12:23 | 55.26134 | -8.15940 | 2077 ft | 260 kts | 197° |
| 2026-04-29 12:24 | 55.24471 | -8.17000 | 1993 ft | 247 kts | 197° |
| 2026-04-29 12:24 | 55.22905 | -8.17988 | 1927 ft | 232 kts | 196° |
| 2026-04-29 12:24 | 55.21453 | -8.18923 | 1832 ft | 212 kts | 197° |
| 2026-04-29 12:24 | 55.20165 | -8.19922 | 1709 ft | 195 kts | 211° |
| 2026-04-29 12:25 | 55.19212 | -8.21415 | 1702 ft | 177 kts | 222° |
| 2026-04-29 12:25 | 55.18432 | -8.22982 | 1458 ft | 167 kts | 228° |
| 2026-04-29 12:25 | 55.16980 | -8.25703 | 941 ft | 153 kts | 207° |
| 2026-04-29 12:26 | 55.16030 | -8.26568 | 804 ft | 147 kts | 202° |
| 2026-04-29 12:26 | 55.15086 | -8.27354 | 805 ft | 154 kts | 201° |
| 2026-04-29 12:26 | 55.14112 | -8.28091 | 909 ft | 153 kts | 202° |
| 2026-04-29 12:26 | 55.13156 | -8.28983 | 937 ft | 160 kts | 208° |
| 2026-04-29 12:27 | 55.12221 | -8.30124 | 1022 ft | 166 kts | 207° |
| 2026-04-29 12:27 | 55.11120 | -8.30812 | 1080 ft | 173 kts | 187° |
| 2026-04-29 12:27 | 55.09901 | -8.31100 | 1162 ft | 180 kts | 183° |
| 2026-04-29 12:27 | 55.08673 | -8.31606 | 1192 ft | 184 kts | 197° |
| 2026-04-29 12:28 | 55.07644 | -8.32883 | 1339 ft | 182 kts | 230° |
| 2026-04-29 12:28 | 55.06944 | -8.34641 | 1554 ft | 174 kts | 232° |
| 2026-04-29 12:28 | 55.06011 | -8.35479 | 1466 ft | 150 kts | 163° |
| 2026-04-29 12:28 | 55.05073 | -8.34665 | 1216 ft | 151 kts | 147° |
| 2026-04-29 12:29 | 55.04232 | -8.33737 | 1293 ft | 134 kts | 140° |
| 2026-04-29 12:29 | 55.03822 | -8.32287 | 1605 ft | 141 kts | 85° |
| 2026-04-29 12:29 | 55.04274 | -8.30752 | 1495 ft | 156 kts | 49° |
| 2026-04-29 12:29 | 55.05227 | -8.29761 | 1355 ft | 158 kts | 13° |
| 2026-04-29 12:30 | 55.06201 | -8.30308 | 1000 ft | 158 kts | 310° |
| 2026-04-29 12:30 | 55.06365 | -8.32161 | 803 ft | 154 kts | 242° |
| 2026-04-29 12:30 | 55.05555 | -8.33382 | 302 ft | 159 kts | 197° |
| 2026-04-29 12:30 | 55.04525 | -8.34048 | 45 ft | 148 kts | 193° |
| 2026-04-29 12:31 | 55.03983 | -8.34383 | 42 ft | 37 kts | 200° |
| 2026-04-29 12:31 | 55.03879 | -8.34367 | 39 ft | 11 kts | 107° |
| 2026-04-29 12:31 | 55.03884 | -8.34234 | 39 ft | 5 kts | 98° |
| 2026-04-29 12:31 | 55.03897 | -8.34183 | 39 ft | 0 kts | 33° |